sensor_id;sensor_type;location;lat;lon;timestamp;P1;durP1;ratioP1;P2;durP2;ratioP2
9076;SDS011;4574;51.072;17.174;2023-04-28T00:00:01;26.33;;;13.60;;
9076;SDS011;4574;51.072;17.174;2023-04-28T00:02:33;25.70;;;13.77;;
9076;SDS011;4574;51.072;17.174;2023-04-28T00:05:06;24.37;;;14.00;;
9076;SDS011;4574;51.072;17.174;2023-04-28T00:07:37;25.50;;;13.97;;
9076;SDS011;4574;51.072;17.174;2023-04-28T00:10:06;26.10;;;14.23;;
9076;SDS011;4574;51.072;17.174;2023-04-28T00:12:36;19.70;;;13.47;;
9076;SDS011;4574;51.072;17.174;2023-04-28T00:15:05;23.63;;;14.17;;
9076;SDS011;4574;51.072;17.174;2023-04-28T00:17:34;23.53;;;13.83;;
9076;SDS011;4574;51.072;17.174;2023-04-28T00:20:03;23.07;;;13.37;;
9076;SDS011;4574;51.072;17.174;2023-04-28T00:22:34;25.53;;;14.20;;
9076;SDS011;4574;51.072;17.174;2023-04-28T00:25:05;22.80;;;14.40;;
9076;SDS011;4574;51.072;17.174;2023-04-28T00:27:36;24.00;;;14.87;;
9076;SDS011;4574;51.072;17.174;2023-04-28T00:30:05;27.00;;;15.70;;
9076;SDS011;4574;51.072;17.174;2023-04-28T00:32:35;35.40;;;17.27;;
9076;SDS011;4574;51.072;17.174;2023-04-28T00:35:04;28.83;;;17.33;;
9076;SDS011;4574;51.072;17.174;2023-04-28T00:37:34;32.23;;;18.90;;
9076;SDS011;4574;51.072;17.174;2023-04-28T00:40:06;34.23;;;18.80;;
9076;SDS011;4574;51.072;17.174;2023-04-28T00:46:19;29.80;;;15.70;;
9076;SDS011;4574;51.072;17.174;2023-04-28T00:48:49;29.80;;;15.67;;
9076;SDS011;4574;51.072;17.174;2023-04-28T00:51:18;25.87;;;15.10;;
9076;SDS011;4574;51.072;17.174;2023-04-28T00:53:48;21.70;;;14.10;;
9076;SDS011;4574;51.072;17.174;2023-04-28T00:56:17;27.10;;;14.77;;
9076;SDS011;4574;51.072;17.174;2023-04-28T00:58:46;24.80;;;14.67;;
9076;SDS011;4574;51.072;17.174;2023-04-28T01:01:15;22.37;;;15.13;;
9076;SDS011;4574;51.072;17.174;2023-04-28T01:03:44;24.73;;;15.27;;
9076;SDS011;4574;51.072;17.174;2023-04-28T01:06:14;25.03;;;15.20;;
9076;SDS011;4574;51.072;17.174;2023-04-28T01:08:46;27.20;;;15.67;;
9076;SDS011;4574;51.072;17.174;2023-04-28T01:11:16;24.57;;;14.73;;
9076;SDS011;4574;51.072;17.174;2023-04-28T01:13:45;26.03;;;15.13;;
9076;SDS011;4574;51.072;17.174;2023-04-28T01:16:14;23.43;;;14.83;;
9076;SDS011;4574;51.072;17.174;2023-04-28T01:18:44;23.60;;;14.30;;
9076;SDS011;4574;51.072;17.174;2023-04-28T01:21:24;23.63;;;13.77;;
9076;SDS011;4574;51.072;17.174;2023-04-28T01:23:57;22.70;;;14.00;;
9076;SDS011;4574;51.072;17.174;2023-04-28T01:26:28;25.47;;;14.13;;
9076;SDS011;4574;51.072;17.174;2023-04-28T01:28:56;23.23;;;14.40;;
9076;SDS011;4574;51.072;17.174;2023-04-28T01:31:25;26.17;;;15.23;;
9076;SDS011;4574;51.072;17.174;2023-04-28T01:33:56;23.07;;;15.23;;
9076;SDS011;4574;51.072;17.174;2023-04-28T01:36:25;25.37;;;14.63;;
9076;SDS011;4574;51.072;17.174;2023-04-28T01:38:54;24.27;;;14.67;;
9076;SDS011;4574;51.072;17.174;2023-04-28T01:41:24;23.90;;;15.33;;
9076;SDS011;4574;51.072;17.174;2023-04-28T01:43:52;19.47;;;14.40;;
9076;SDS011;4574;51.072;17.174;2023-04-28T01:46:21;21.90;;;13.70;;
9076;SDS011;4574;51.072;17.174;2023-04-28T01:48:49;20.73;;;13.93;;
9076;SDS011;4574;51.072;17.174;2023-04-28T01:51:18;19.93;;;13.43;;
9076;SDS011;4574;51.072;17.174;2023-04-28T01:53:46;21.03;;;13.17;;
9076;SDS011;4574;51.072;17.174;2023-04-28T01:56:15;19.47;;;12.97;;
9076;SDS011;4574;51.072;17.174;2023-04-28T01:58:45;18.23;;;12.83;;
9076;SDS011;4574;51.072;17.174;2023-04-28T02:01:13;21.43;;;13.03;;
9076;SDS011;4574;51.072;17.174;2023-04-28T02:03:42;18.10;;;11.43;;
9076;SDS011;4574;51.072;17.174;2023-04-28T02:06:11;22.17;;;11.93;;
9076;SDS011;4574;51.072;17.174;2023-04-28T02:08:39;20.57;;;11.40;;
9076;SDS011;4574;51.072;17.174;2023-04-28T02:11:08;16.77;;;11.67;;
9076;SDS011;4574;51.072;17.174;2023-04-28T02:13:37;18.70;;;11.53;;
9076;SDS011;4574;51.072;17.174;2023-04-28T02:16:07;15.83;;;11.30;;
9076;SDS011;4574;51.072;17.174;2023-04-28T02:18:35;24.53;;;12.00;;
9076;SDS011;4574;51.072;17.174;2023-04-28T02:21:07;18.90;;;11.30;;
9076;SDS011;4574;51.072;17.174;2023-04-28T02:23:37;19.77;;;10.17;;
9076;SDS011;4574;51.072;17.174;2023-04-28T02:26:06;16.53;;;10.57;;
9076;SDS011;4574;51.072;17.174;2023-04-28T02:28:34;15.57;;;10.63;;
9076;SDS011;4574;51.072;17.174;2023-04-28T02:31:03;18.17;;;10.37;;
9076;SDS011;4574;51.072;17.174;2023-04-28T02:33:35;17.37;;;10.53;;
9076;SDS011;4574;51.072;17.174;2023-04-28T02:36:04;16.77;;;11.37;;
9076;SDS011;4574;51.072;17.174;2023-04-28T02:38:33;17.67;;;11.00;;
9076;SDS011;4574;51.072;17.174;2023-04-28T02:41:03;20.83;;;12.00;;
9076;SDS011;4574;51.072;17.174;2023-04-28T02:43:33;18.27;;;11.93;;
9076;SDS011;4574;51.072;17.174;2023-04-28T02:46:02;19.20;;;10.83;;
9076;SDS011;4574;51.072;17.174;2023-04-28T02:48:31;19.40;;;11.80;;
9076;SDS011;4574;51.072;17.174;2023-04-28T02:51:03;17.23;;;10.67;;
9076;SDS011;4574;51.072;17.174;2023-04-28T02:53:32;15.23;;;11.00;;
9076;SDS011;4574;51.072;17.174;2023-04-28T02:56:00;16.17;;;11.40;;
9076;SDS011;4574;51.072;17.174;2023-04-28T02:58:30;17.77;;;11.00;;
9076;SDS011;4574;51.072;17.174;2023-04-28T03:00:58;18.40;;;11.90;;
9076;SDS011;4574;51.072;17.174;2023-04-28T03:03:27;27.30;;;13.47;;
9076;SDS011;4574;51.072;17.174;2023-04-28T03:05:55;25.73;;;13.90;;
9076;SDS011;4574;51.072;17.174;2023-04-28T03:08:25;26.07;;;13.77;;
9076;SDS011;4574;51.072;17.174;2023-04-28T03:10:54;22.07;;;12.77;;
9076;SDS011;4574;51.072;17.174;2023-04-28T03:13:22;21.63;;;12.00;;
9076;SDS011;4574;51.072;17.174;2023-04-28T03:15:51;17.83;;;10.93;;
9076;SDS011;4574;51.072;17.174;2023-04-28T03:18:19;18.67;;;11.37;;
9076;SDS011;4574;51.072;17.174;2023-04-28T03:20:48;21.73;;;11.73;;
9076;SDS011;4574;51.072;17.174;2023-04-28T03:23:17;20.40;;;11.80;;
9076;SDS011;4574;51.072;17.174;2023-04-28T03:25:47;20.60;;;11.97;;
9076;SDS011;4574;51.072;17.174;2023-04-28T03:28:15;17.80;;;11.97;;
9076;SDS011;4574;51.072;17.174;2023-04-28T03:30:44;19.93;;;11.90;;
9076;SDS011;4574;51.072;17.174;2023-04-28T03:33:12;20.53;;;11.60;;
9076;SDS011;4574;51.072;17.174;2023-04-28T03:35:41;21.53;;;11.43;;
9076;SDS011;4574;51.072;17.174;2023-04-28T03:38:09;18.73;;;11.50;;
9076;SDS011;4574;51.072;17.174;2023-04-28T03:40:38;18.37;;;11.03;;
9076;SDS011;4574;51.072;17.174;2023-04-28T03:43:08;18.17;;;11.70;;
9076;SDS011;4574;51.072;17.174;2023-04-28T03:45:36;22.97;;;13.07;;
9076;SDS011;4574;51.072;17.174;2023-04-28T03:48:05;24.30;;;12.40;;
9076;SDS011;4574;51.072;17.174;2023-04-28T03:50:34;18.87;;;12.30;;
9076;SDS011;4574;51.072;17.174;2023-04-28T03:53:03;18.17;;;11.20;;
9076;SDS011;4574;51.072;17.174;2023-04-28T03:55:31;21.00;;;11.93;;
9076;SDS011;4574;51.072;17.174;2023-04-28T03:58:00;17.90;;;11.43;;
9076;SDS011;4574;51.072;17.174;2023-04-28T04:00:30;20.53;;;13.10;;
9076;SDS011;4574;51.072;17.174;2023-04-28T04:02:58;21.40;;;13.57;;
9076;SDS011;4574;51.072;17.174;2023-04-28T04:05:27;22.03;;;13.83;;
9076;SDS011;4574;51.072;17.174;2023-04-28T04:07:56;21.53;;;12.80;;
9076;SDS011;4574;51.072;17.174;2023-04-28T04:10:25;21.27;;;12.27;;
9076;SDS011;4574;51.072;17.174;2023-04-28T04:12:53;21.77;;;12.93;;
9076;SDS011;4574;51.072;17.174;2023-04-28T04:15:22;21.50;;;12.67;;
9076;SDS011;4574;51.072;17.174;2023-04-28T04:17:52;23.13;;;13.00;;
9076;SDS011;4574;51.072;17.174;2023-04-28T04:20:21;19.60;;;12.83;;
9076;SDS011;4574;51.072;17.174;2023-04-28T04:22:49;19.50;;;13.73;;
9076;SDS011;4574;51.072;17.174;2023-04-28T04:25:18;24.17;;;13.23;;
9076;SDS011;4574;51.072;17.174;2023-04-28T04:27:48;25.27;;;13.63;;
9076;SDS011;4574;51.072;17.174;2023-04-28T04:30:17;20.73;;;12.80;;
9076;SDS011;4574;51.072;17.174;2023-04-28T04:32:45;20.77;;;13.67;;
9076;SDS011;4574;51.072;17.174;2023-04-28T04:35:16;19.27;;;13.13;;
9076;SDS011;4574;51.072;17.174;2023-04-28T04:37:44;21.80;;;13.33;;
9076;SDS011;4574;51.072;17.174;2023-04-28T04:40:13;24.83;;;14.27;;
9076;SDS011;4574;51.072;17.174;2023-04-28T04:42:41;23.37;;;13.70;;
9076;SDS011;4574;51.072;17.174;2023-04-28T04:45:10;23.87;;;13.73;;
9076;SDS011;4574;51.072;17.174;2023-04-28T04:47:39;23.43;;;14.20;;
9076;SDS011;4574;51.072;17.174;2023-04-28T04:50:08;25.87;;;14.97;;
9076;SDS011;4574;51.072;17.174;2023-04-28T04:52:39;23.50;;;14.67;;
9076;SDS011;4574;51.072;17.174;2023-04-28T04:55:08;24.03;;;14.20;;
9076;SDS011;4574;51.072;17.174;2023-04-28T04:57:38;23.40;;;13.93;;
9076;SDS011;4574;51.072;17.174;2023-04-28T05:00:07;24.30;;;14.07;;
9076;SDS011;4574;51.072;17.174;2023-04-28T05:02:36;23.23;;;13.67;;
9076;SDS011;4574;51.072;17.174;2023-04-28T05:05:05;23.33;;;14.00;;
9076;SDS011;4574;51.072;17.174;2023-04-28T05:07:49;22.47;;;14.37;;
9076;SDS011;4574;51.072;17.174;2023-04-28T05:10:17;24.83;;;13.47;;
9076;SDS011;4574;51.072;17.174;2023-04-28T05:12:46;21.70;;;13.43;;
9076;SDS011;4574;51.072;17.174;2023-04-28T05:15:14;20.43;;;13.10;;
9076;SDS011;4574;51.072;17.174;2023-04-28T05:17:43;20.03;;;12.30;;
9076;SDS011;4574;51.072;17.174;2023-04-28T05:20:12;24.83;;;14.40;;
9076;SDS011;4574;51.072;17.174;2023-04-28T05:22:40;21.47;;;12.87;;
9076;SDS011;4574;51.072;17.174;2023-04-28T05:25:10;24.17;;;14.03;;
9076;SDS011;4574;51.072;17.174;2023-04-28T05:27:39;20.13;;;13.20;;
9076;SDS011;4574;51.072;17.174;2023-04-28T05:30:08;24.17;;;12.87;;
9076;SDS011;4574;51.072;17.174;2023-04-28T05:32:37;22.80;;;13.10;;
9076;SDS011;4574;51.072;17.174;2023-04-28T05:35:06;22.27;;;12.83;;
9076;SDS011;4574;51.072;17.174;2023-04-28T05:37:35;30.10;;;13.20;;
9076;SDS011;4574;51.072;17.174;2023-04-28T05:40:05;21.73;;;13.17;;
9076;SDS011;4574;51.072;17.174;2023-04-28T05:42:35;19.57;;;12.20;;
9076;SDS011;4574;51.072;17.174;2023-04-28T05:45:05;22.47;;;13.43;;
9076;SDS011;4574;51.072;17.174;2023-04-28T05:47:34;24.77;;;13.40;;
9076;SDS011;4574;51.072;17.174;2023-04-28T05:50:03;20.10;;;12.43;;
9076;SDS011;4574;51.072;17.174;2023-04-28T05:52:32;25.67;;;13.90;;
9076;SDS011;4574;51.072;17.174;2023-04-28T05:55:00;19.90;;;12.87;;
9076;SDS011;4574;51.072;17.174;2023-04-28T05:57:31;24.03;;;13.27;;
9076;SDS011;4574;51.072;17.174;2023-04-28T06:00:19;25.40;;;13.07;;
9076;SDS011;4574;51.072;17.174;2023-04-28T06:02:48;20.53;;;13.83;;
9076;SDS011;4574;51.072;17.174;2023-04-28T06:05:17;21.47;;;13.10;;
9076;SDS011;4574;51.072;17.174;2023-04-28T06:07:46;18.97;;;13.33;;
9076;SDS011;4574;51.072;17.174;2023-04-28T06:10:15;28.57;;;12.97;;
9076;SDS011;4574;51.072;17.174;2023-04-28T06:12:44;22.90;;;12.87;;
9076;SDS011;4574;51.072;17.174;2023-04-28T06:15:13;24.37;;;13.90;;
9076;SDS011;4574;51.072;17.174;2023-04-28T06:17:43;20.73;;;12.17;;
9076;SDS011;4574;51.072;17.174;2023-04-28T06:20:12;17.77;;;12.40;;
9076;SDS011;4574;51.072;17.174;2023-04-28T06:22:42;22.37;;;12.83;;
9076;SDS011;4574;51.072;17.174;2023-04-28T06:25:10;20.67;;;13.40;;
9076;SDS011;4574;51.072;17.174;2023-04-28T06:27:39;22.70;;;12.17;;
9076;SDS011;4574;51.072;17.174;2023-04-28T06:30:08;21.63;;;13.27;;
9076;SDS011;4574;51.072;17.174;2023-04-28T06:32:37;23.00;;;13.20;;
9076;SDS011;4574;51.072;17.174;2023-04-28T06:35:07;17.93;;;13.33;;
9076;SDS011;4574;51.072;17.174;2023-04-28T06:37:36;23.50;;;13.57;;
9076;SDS011;4574;51.072;17.174;2023-04-28T06:40:05;19.50;;;13.07;;
9076;SDS011;4574;51.072;17.174;2023-04-28T06:42:35;19.70;;;11.97;;
9076;SDS011;4574;51.072;17.174;2023-04-28T06:45:04;19.03;;;13.27;;
9076;SDS011;4574;51.072;17.174;2023-04-28T06:47:33;26.30;;;14.27;;
9076;SDS011;4574;51.072;17.174;2023-04-28T06:50:03;19.67;;;12.33;;
9076;SDS011;4574;51.072;17.174;2023-04-28T06:52:33;19.80;;;12.43;;
9076;SDS011;4574;51.072;17.174;2023-04-28T06:55:05;18.77;;;11.77;;
9076;SDS011;4574;51.072;17.174;2023-04-28T06:57:35;22.43;;;11.57;;
9076;SDS011;4574;51.072;17.174;2023-04-28T07:00:04;20.30;;;11.93;;
9076;SDS011;4574;51.072;17.174;2023-04-28T07:02:34;19.83;;;13.63;;
9076;SDS011;4574;51.072;17.174;2023-04-28T07:05:04;21.07;;;14.07;;
9076;SDS011;4574;51.072;17.174;2023-04-28T07:07:35;21.03;;;13.37;;
9076;SDS011;4574;51.072;17.174;2023-04-28T07:10:05;23.57;;;12.37;;
9076;SDS011;4574;51.072;17.174;2023-04-28T07:12:34;20.73;;;12.07;;
9076;SDS011;4574;51.072;17.174;2023-04-28T07:15:03;16.57;;;10.87;;
9076;SDS011;4574;51.072;17.174;2023-04-28T07:17:35;20.60;;;11.83;;
9076;SDS011;4574;51.072;17.174;2023-04-28T07:20:05;19.40;;;11.27;;
9076;SDS011;4574;51.072;17.174;2023-04-28T07:22:38;14.50;;;10.17;;
9076;SDS011;4574;51.072;17.174;2023-04-28T07:25:07;14.37;;;9.63;;
9076;SDS011;4574;51.072;17.174;2023-04-28T07:27:35;21.83;;;12.00;;
9076;SDS011;4574;51.072;17.174;2023-04-28T07:30:05;21.00;;;11.43;;
9076;SDS011;4574;51.072;17.174;2023-04-28T07:32:52;14.80;;;10.60;;
9076;SDS011;4574;51.072;17.174;2023-04-28T07:35:21;17.27;;;11.30;;
9076;SDS011;4574;51.072;17.174;2023-04-28T07:37:51;15.10;;;9.33;;
9076;SDS011;4574;51.072;17.174;2023-04-28T07:40:20;16.20;;;9.20;;
9076;SDS011;4574;51.072;17.174;2023-04-28T07:42:49;13.30;;;9.20;;
9076;SDS011;4574;51.072;17.174;2023-04-28T07:45:18;16.43;;;9.23;;
9076;SDS011;4574;51.072;17.174;2023-04-28T07:47:47;14.93;;;9.97;;
9076;SDS011;4574;51.072;17.174;2023-04-28T07:50:16;14.97;;;8.33;;
9076;SDS011;4574;51.072;17.174;2023-04-28T07:52:44;15.90;;;8.87;;
9076;SDS011;4574;51.072;17.174;2023-04-28T07:55:14;13.70;;;8.40;;
9076;SDS011;4574;51.072;17.174;2023-04-28T07:57:43;13.77;;;8.33;;
9076;SDS011;4574;51.072;17.174;2023-04-28T08:00:12;14.07;;;8.20;;
9076;SDS011;4574;51.072;17.174;2023-04-28T08:02:41;10.60;;;7.47;;
9076;SDS011;4574;51.072;17.174;2023-04-28T08:05:10;10.90;;;7.27;;
9076;SDS011;4574;51.072;17.174;2023-04-28T08:07:40;9.93;;;6.63;;
9076;SDS011;4574;51.072;17.174;2023-04-28T08:10:09;13.63;;;7.50;;
9076;SDS011;4574;51.072;17.174;2023-04-28T08:12:39;9.73;;;6.73;;
9076;SDS011;4574;51.072;17.174;2023-04-28T08:15:08;7.83;;;6.03;;
9076;SDS011;4574;51.072;17.174;2023-04-28T08:17:37;11.27;;;5.80;;
9076;SDS011;4574;51.072;17.174;2023-04-28T08:20:06;12.30;;;5.60;;
9076;SDS011;4574;51.072;17.174;2023-04-28T08:22:35;7.07;;;5.40;;
9076;SDS011;4574;51.072;17.174;2023-04-28T08:25:04;9.23;;;6.10;;
9076;SDS011;4574;51.072;17.174;2023-04-28T08:27:33;7.93;;;5.60;;
9076;SDS011;4574;51.072;17.174;2023-04-28T08:30:06;17.20;;;6.80;;
9076;SDS011;4574;51.072;17.174;2023-04-28T08:32:35;11.07;;;6.23;;
9076;SDS011;4574;51.072;17.174;2023-04-28T08:35:04;8.27;;;5.67;;
9076;SDS011;4574;51.072;17.174;2023-04-28T08:37:34;9.83;;;5.30;;
9076;SDS011;4574;51.072;17.174;2023-04-28T08:40:03;9.00;;;5.70;;
9076;SDS011;4574;51.072;17.174;2023-04-28T08:42:35;10.53;;;6.13;;
9076;SDS011;4574;51.072;17.174;2023-04-28T08:45:07;12.13;;;6.43;;
9076;SDS011;4574;51.072;17.174;2023-04-28T08:47:40;10.80;;;6.33;;
9076;SDS011;4574;51.072;17.174;2023-04-28T08:50:12;11.13;;;6.07;;
9076;SDS011;4574;51.072;17.174;2023-04-28T08:52:41;16.03;;;5.90;;
9076;SDS011;4574;51.072;17.174;2023-04-28T08:55:10;14.67;;;5.57;;
9076;SDS011;4574;51.072;17.174;2023-04-28T08:57:41;8.47;;;4.87;;
9076;SDS011;4574;51.072;17.174;2023-04-28T09:00:13;7.20;;;4.60;;
9076;SDS011;4574;51.072;17.174;2023-04-28T09:02:42;10.77;;;5.67;;
9076;SDS011;4574;51.072;17.174;2023-04-28T09:05:11;8.53;;;4.67;;
9076;SDS011;4574;51.072;17.174;2023-04-28T09:07:44;6.30;;;4.10;;
9076;SDS011;4574;51.072;17.174;2023-04-28T09:10:17;7.90;;;4.10;;
9076;SDS011;4574;51.072;17.174;2023-04-28T09:12:47;14.10;;;4.57;;
9076;SDS011;4574;51.072;17.174;2023-04-28T09:15:26;8.33;;;4.33;;
9076;SDS011;4574;51.072;17.174;2023-04-28T09:17:59;7.23;;;4.40;;
9076;SDS011;4574;51.072;17.174;2023-04-28T09:20:29;8.53;;;4.80;;
9076;SDS011;4574;51.072;17.174;2023-04-28T09:23:11;6.33;;;4.53;;
9076;SDS011;4574;51.072;17.174;2023-04-28T09:25:54;8.20;;;4.73;;
9076;SDS011;4574;51.072;17.174;2023-04-28T09:28:24;8.33;;;4.43;;
9076;SDS011;4574;51.072;17.174;2023-04-28T09:30:54;7.20;;;4.43;;
9076;SDS011;4574;51.072;17.174;2023-04-28T09:33:23;8.80;;;4.60;;
9076;SDS011;4574;51.072;17.174;2023-04-28T09:35:51;8.40;;;4.73;;
9076;SDS011;4574;51.072;17.174;2023-04-28T09:38:21;7.30;;;4.80;;
9076;SDS011;4574;51.072;17.174;2023-04-28T09:40:51;7.47;;;4.43;;
9076;SDS011;4574;51.072;17.174;2023-04-28T09:43:22;9.70;;;5.07;;
9076;SDS011;4574;51.072;17.174;2023-04-28T09:45:51;7.17;;;4.77;;
9076;SDS011;4574;51.072;17.174;2023-04-28T09:48:26;6.73;;;4.20;;
9076;SDS011;4574;51.072;17.174;2023-04-28T09:50:55;7.73;;;4.97;;
9076;SDS011;4574;51.072;17.174;2023-04-28T09:53:25;6.70;;;4.20;;
9076;SDS011;4574;51.072;17.174;2023-04-28T09:55:55;6.47;;;4.20;;
9076;SDS011;4574;51.072;17.174;2023-04-28T09:58:25;6.50;;;4.83;;
9076;SDS011;4574;51.072;17.174;2023-04-28T10:00:57;9.67;;;4.93;;
9076;SDS011;4574;51.072;17.174;2023-04-28T10:03:27;5.93;;;4.07;;
9076;SDS011;4574;51.072;17.174;2023-04-28T10:05:57;7.10;;;4.20;;
9076;SDS011;4574;51.072;17.174;2023-04-28T10:08:29;7.90;;;4.40;;
9076;SDS011;4574;51.072;17.174;2023-04-28T10:10:58;7.10;;;4.90;;
9076;SDS011;4574;51.072;17.174;2023-04-28T10:13:27;7.23;;;3.97;;
9076;SDS011;4574;51.072;17.174;2023-04-28T10:15:58;10.93;;;4.50;;
9076;SDS011;4574;51.072;17.174;2023-04-28T10:18:29;7.33;;;3.90;;
9076;SDS011;4574;51.072;17.174;2023-04-28T10:21:00;9.63;;;4.70;;
9076;SDS011;4574;51.072;17.174;2023-04-28T10:23:38;5.97;;;3.97;;
9076;SDS011;4574;51.072;17.174;2023-04-28T10:26:18;8.87;;;4.40;;
9076;SDS011;4574;51.072;17.174;2023-04-28T10:28:50;6.50;;;4.63;;
9076;SDS011;4574;51.072;17.174;2023-04-28T10:31:21;10.77;;;4.97;;
9076;SDS011;4574;51.072;17.174;2023-04-28T10:33:50;11.23;;;4.77;;
9076;SDS011;4574;51.072;17.174;2023-04-28T10:39:14;9.83;;;5.00;;
9076;SDS011;4574;51.072;17.174;2023-04-28T10:41:43;8.97;;;5.00;;
9076;SDS011;4574;51.072;17.174;2023-04-28T10:47:12;9.13;;;4.80;;
9076;SDS011;4574;51.072;17.174;2023-04-28T10:55:27;9.63;;;3.63;;
9076;SDS011;4574;51.072;17.174;2023-04-28T11:03:54;6.60;;;4.13;;
9076;SDS011;4574;51.072;17.174;2023-04-28T11:06:30;7.50;;;4.17;;
9076;SDS011;4574;51.072;17.174;2023-04-28T11:09:02;6.20;;;3.80;;
9076;SDS011;4574;51.072;17.174;2023-04-28T11:12:04;8.70;;;4.20;;
9076;SDS011;4574;51.072;17.174;2023-04-28T11:14:36;6.83;;;3.37;;
9076;SDS011;4574;51.072;17.174;2023-04-28T11:17:06;8.17;;;3.57;;
9076;SDS011;4574;51.072;17.174;2023-04-28T11:19:39;6.10;;;2.90;;
9076;SDS011;4574;51.072;17.174;2023-04-28T11:22:13;10.10;;;3.77;;
9076;SDS011;4574;51.072;17.174;2023-04-28T11:24:54;4.37;;;3.33;;
9076;SDS011;4574;51.072;17.174;2023-04-28T11:27:25;7.87;;;3.40;;
9076;SDS011;4574;51.072;17.174;2023-04-28T11:29:54;6.23;;;3.03;;
9076;SDS011;4574;51.072;17.174;2023-04-28T11:32:26;4.27;;;3.20;;
9076;SDS011;4574;51.072;17.174;2023-04-28T11:34:55;12.07;;;3.07;;
9076;SDS011;4574;51.072;17.174;2023-04-28T11:37:25;4.23;;;3.07;;
9076;SDS011;4574;51.072;17.174;2023-04-28T11:39:54;4.33;;;2.60;;
9076;SDS011;4574;51.072;17.174;2023-04-28T11:42:23;3.90;;;3.00;;
9076;SDS011;4574;51.072;17.174;2023-04-28T11:44:55;6.47;;;3.07;;
9076;SDS011;4574;51.072;17.174;2023-04-28T11:47:30;6.13;;;3.23;;
9076;SDS011;4574;51.072;17.174;2023-04-28T11:50:00;5.40;;;3.00;;
9076;SDS011;4574;51.072;17.174;2023-04-28T11:52:29;7.37;;;3.00;;
9076;SDS011;4574;51.072;17.174;2023-04-28T11:54:58;7.20;;;3.37;;
9076;SDS011;4574;51.072;17.174;2023-04-28T11:57:29;5.70;;;3.33;;
9076;SDS011;4574;51.072;17.174;2023-04-28T12:00:10;7.60;;;2.93;;
9076;SDS011;4574;51.072;17.174;2023-04-28T12:02:45;5.87;;;3.10;;
9076;SDS011;4574;51.072;17.174;2023-04-28T12:05:14;5.27;;;3.13;;
9076;SDS011;4574;51.072;17.174;2023-04-28T12:07:43;4.00;;;2.73;;
9076;SDS011;4574;51.072;17.174;2023-04-28T12:10:12;5.40;;;3.00;;
9076;SDS011;4574;51.072;17.174;2023-04-28T12:12:44;5.47;;;3.20;;
9076;SDS011;4574;51.072;17.174;2023-04-28T12:15:18;10.07;;;3.10;;
9076;SDS011;4574;51.072;17.174;2023-04-28T12:17:48;4.17;;;2.60;;
9076;SDS011;4574;51.072;17.174;2023-04-28T12:20:33;6.60;;;2.77;;
9076;SDS011;4574;51.072;17.174;2023-04-28T12:23:03;6.00;;;3.63;;
9076;SDS011;4574;51.072;17.174;2023-04-28T12:25:41;6.53;;;2.60;;
9076;SDS011;4574;51.072;17.174;2023-04-28T12:28:12;8.77;;;3.30;;
9076;SDS011;4574;51.072;17.174;2023-04-28T12:30:41;7.23;;;3.17;;
9076;SDS011;4574;51.072;17.174;2023-04-28T12:33:20;7.47;;;2.80;;
9076;SDS011;4574;51.072;17.174;2023-04-28T12:35:50;6.93;;;2.80;;
9076;SDS011;4574;51.072;17.174;2023-04-28T12:38:20;4.07;;;2.80;;
9076;SDS011;4574;51.072;17.174;2023-04-28T12:40:49;4.20;;;2.40;;
9076;SDS011;4574;51.072;17.174;2023-04-28T12:43:20;2.83;;;2.50;;
9076;SDS011;4574;51.072;17.174;2023-04-28T12:45:49;7.57;;;2.73;;
9076;SDS011;4574;51.072;17.174;2023-04-28T12:48:19;7.63;;;2.53;;
9076;SDS011;4574;51.072;17.174;2023-04-28T12:50:49;4.23;;;2.43;;
9076;SDS011;4574;51.072;17.174;2023-04-28T12:53:18;3.10;;;2.27;;
9076;SDS011;4574;51.072;17.174;2023-04-28T12:55:47;4.60;;;2.90;;
9076;SDS011;4574;51.072;17.174;2023-04-28T12:58:16;7.67;;;3.33;;
9076;SDS011;4574;51.072;17.174;2023-04-28T13:00:46;3.93;;;2.87;;
9076;SDS011;4574;51.072;17.174;2023-04-28T13:03:15;5.20;;;2.30;;
9076;SDS011;4574;51.072;17.174;2023-04-28T13:05:45;5.10;;;2.63;;
9076;SDS011;4574;51.072;17.174;2023-04-28T13:08:14;5.37;;;2.60;;
9076;SDS011;4574;51.072;17.174;2023-04-28T13:10:43;5.87;;;2.20;;
9076;SDS011;4574;51.072;17.174;2023-04-28T13:13:12;3.97;;;2.23;;
9076;SDS011;4574;51.072;17.174;2023-04-28T13:15:41;3.77;;;2.20;;
9076;SDS011;4574;51.072;17.174;2023-04-28T13:18:11;2.87;;;1.93;;
9076;SDS011;4574;51.072;17.174;2023-04-28T13:20:40;3.23;;;2.13;;
9076;SDS011;4574;51.072;17.174;2023-04-28T13:23:09;6.10;;;2.30;;
9076;SDS011;4574;51.072;17.174;2023-04-28T13:25:38;4.90;;;1.97;;
9076;SDS011;4574;51.072;17.174;2023-04-28T13:28:06;4.07;;;2.57;;
9076;SDS011;4574;51.072;17.174;2023-04-28T13:30:35;3.13;;;1.90;;
9076;SDS011;4574;51.072;17.174;2023-04-28T13:33:04;6.13;;;2.40;;
9076;SDS011;4574;51.072;17.174;2023-04-28T13:35:34;5.07;;;2.23;;
9076;SDS011;4574;51.072;17.174;2023-04-28T13:38:03;3.10;;;1.73;;
9076;SDS011;4574;51.072;17.174;2023-04-28T13:40:31;3.50;;;2.13;;
9076;SDS011;4574;51.072;17.174;2023-04-28T13:43:01;3.43;;;2.00;;
9076;SDS011;4574;51.072;17.174;2023-04-28T13:45:30;5.23;;;1.97;;
9076;SDS011;4574;51.072;17.174;2023-04-28T13:48:01;6.53;;;2.13;;
9076;SDS011;4574;51.072;17.174;2023-04-28T13:50:30;3.30;;;1.90;;
9076;SDS011;4574;51.072;17.174;2023-04-28T13:53:00;4.03;;;1.80;;
9076;SDS011;4574;51.072;17.174;2023-04-28T13:55:28;2.90;;;2.00;;
9076;SDS011;4574;51.072;17.174;2023-04-28T13:57:57;2.70;;;1.80;;
9076;SDS011;4574;51.072;17.174;2023-04-28T14:00:29;5.47;;;2.57;;
9076;SDS011;4574;51.072;17.174;2023-04-28T14:02:58;6.27;;;2.10;;
9076;SDS011;4574;51.072;17.174;2023-04-28T14:05:27;3.20;;;2.00;;
9076;SDS011;4574;51.072;17.174;2023-04-28T14:08:09;7.00;;;2.37;;
9076;SDS011;4574;51.072;17.174;2023-04-28T14:10:37;6.00;;;1.70;;
9076;SDS011;4574;51.072;17.174;2023-04-28T14:13:06;3.43;;;2.00;;
9076;SDS011;4574;51.072;17.174;2023-04-28T14:15:35;3.40;;;1.90;;
9076;SDS011;4574;51.072;17.174;2023-04-28T14:18:20;3.43;;;2.03;;
9076;SDS011;4574;51.072;17.174;2023-04-28T14:20:48;4.20;;;2.23;;
9076;SDS011;4574;51.072;17.174;2023-04-28T14:23:19;5.63;;;2.40;;
9076;SDS011;4574;51.072;17.174;2023-04-28T14:25:48;4.07;;;1.80;;
9076;SDS011;4574;51.072;17.174;2023-04-28T14:28:20;2.37;;;1.87;;
9076;SDS011;4574;51.072;17.174;2023-04-28T14:30:48;3.47;;;1.80;;
9076;SDS011;4574;51.072;17.174;2023-04-28T14:33:17;5.07;;;1.83;;
9076;SDS011;4574;51.072;17.174;2023-04-28T14:35:45;3.87;;;1.97;;
9076;SDS011;4574;51.072;17.174;2023-04-28T14:38:14;5.33;;;1.90;;
9076;SDS011;4574;51.072;17.174;2023-04-28T14:40:44;4.20;;;2.00;;
9076;SDS011;4574;51.072;17.174;2023-04-28T14:43:12;5.30;;;2.07;;
9076;SDS011;4574;51.072;17.174;2023-04-28T14:45:41;4.97;;;1.90;;
9076;SDS011;4574;51.072;17.174;2023-04-28T14:48:10;3.50;;;1.90;;
9076;SDS011;4574;51.072;17.174;2023-04-28T14:50:40;7.97;;;1.80;;
9076;SDS011;4574;51.072;17.174;2023-04-28T14:53:10;4.33;;;2.17;;
9076;SDS011;4574;51.072;17.174;2023-04-28T14:55:40;5.43;;;2.03;;
9076;SDS011;4574;51.072;17.174;2023-04-28T14:58:10;7.97;;;2.13;;
9076;SDS011;4574;51.072;17.174;2023-04-28T15:00:39;3.87;;;2.07;;
9076;SDS011;4574;51.072;17.174;2023-04-28T15:03:07;2.27;;;1.80;;
9076;SDS011;4574;51.072;17.174;2023-04-28T15:05:36;4.93;;;2.03;;
9076;SDS011;4574;51.072;17.174;2023-04-28T15:08:05;5.10;;;2.00;;
9076;SDS011;4574;51.072;17.174;2023-04-28T15:10:36;6.33;;;2.60;;
9076;SDS011;4574;51.072;17.174;2023-04-28T15:13:06;4.77;;;2.30;;
9076;SDS011;4574;51.072;17.174;2023-04-28T15:15:36;4.50;;;2.00;;
9076;SDS011;4574;51.072;17.174;2023-04-28T15:18:04;3.77;;;1.60;;
9076;SDS011;4574;51.072;17.174;2023-04-28T15:20:35;4.00;;;1.70;;
9076;SDS011;4574;51.072;17.174;2023-04-28T15:23:04;2.53;;;2.00;;